sensor_id;sensor_type;location;lat;lon;timestamp;temperature;humidity
32394;DHT22;18853;45.426;9.206;2022-12-11T00:00:22;9.00;61.60
32394;DHT22;18853;45.426;9.206;2022-12-11T00:02:48;9.00;61.60
32394;DHT22;18853;45.426;9.206;2022-12-11T00:05:13;8.90;61.50
32394;DHT22;18853;45.426;9.206;2022-12-11T00:07:39;8.80;61.60
32394;DHT22;18853;45.426;9.206;2022-12-11T00:10:06;8.80;61.70
32394;DHT22;18853;45.426;9.206;2022-12-11T00:12:31;8.80;61.60
32394;DHT22;18853;45.426;9.206;2022-12-11T00:14:57;8.70;61.50
32394;DHT22;18853;45.426;9.206;2022-12-11T00:17:23;8.70;61.40
32394;DHT22;18853;45.426;9.206;2022-12-11T00:19:48;8.70;61.00
32394;DHT22;18853;45.426;9.206;2022-12-11T00:22:14;8.70;61.10
32394;DHT22;18853;45.426;9.206;2022-12-11T00:24:40;8.50;61.30
32394;DHT22;18853;45.426;9.206;2022-12-11T00:27:06;8.50;61.20
32394;DHT22;18853;45.426;9.206;2022-12-11T00:29:32;8.50;61.10
32394;DHT22;18853;45.426;9.206;2022-12-11T00:31:58;8.60;60.90
32394;DHT22;18853;45.426;9.206;2022-12-11T00:34:23;8.50;60.70
32394;DHT22;18853;45.426;9.206;2022-12-11T00:36:49;8.50;60.50
32394;DHT22;18853;45.426;9.206;2022-12-11T00:39:15;8.50;60.60
32394;DHT22;18853;45.426;9.206;2022-12-11T00:41:40;8.40;60.60
32394;DHT22;18853;45.426;9.206;2022-12-11T00:44:06;8.40;60.60
32394;DHT22;18853;45.426;9.206;2022-12-11T00:46:32;8.40;60.50
32394;DHT22;18853;45.426;9.206;2022-12-11T00:48:57;8.50;60.10
32394;DHT22;18853;45.426;9.206;2022-12-11T00:51:23;8.40;59.90
32394;DHT22;18853;45.426;9.206;2022-12-11T00:53:50;8.40;59.70
32394;DHT22;18853;45.426;9.206;2022-12-11T00:56:19;8.40;59.80
32394;DHT22;18853;45.426;9.206;2022-12-11T00:58:47;8.40;59.80
32394;DHT22;18853;45.426;9.206;2022-12-11T01:01:18;8.30;59.90
32394;DHT22;18853;45.426;9.206;2022-12-11T01:03:45;8.30;59.80
32394;DHT22;18853;45.426;9.206;2022-12-11T01:06:16;8.20;59.90
32394;DHT22;18853;45.426;9.206;2022-12-11T01:08:42;8.20;59.80
32394;DHT22;18853;45.426;9.206;2022-12-11T01:11:12;8.20;59.70
32394;DHT22;18853;45.426;9.206;2022-12-11T01:13:39;8.20;59.70
32394;DHT22;18853;45.426;9.206;2022-12-11T01:16:14;8.10;59.80
32394;DHT22;18853;45.426;9.206;2022-12-11T01:18:40;8.10;59.60
32394;DHT22;18853;45.426;9.206;2022-12-11T01:21:11;8.10;59.60
32394;DHT22;18853;45.426;9.206;2022-12-11T01:23:38;8.00;59.70
32394;DHT22;18853;45.426;9.206;2022-12-11T01:26:09;8.00;59.90
32394;DHT22;18853;45.426;9.206;2022-12-11T01:28:35;8.00;59.90
32394;DHT22;18853;45.426;9.206;2022-12-11T01:31:01;8.00;59.70
32394;DHT22;18853;45.426;9.206;2022-12-11T01:33:27;8.00;59.40
32394;DHT22;18853;45.426;9.206;2022-12-11T01:35:53;8.00;59.50
32394;DHT22;18853;45.426;9.206;2022-12-11T01:38:18;7.90;59.30
32394;DHT22;18853;45.426;9.206;2022-12-11T01:40:48;7.90;59.40
32394;DHT22;18853;45.426;9.206;2022-12-11T01:43:15;7.90;59.30
32394;DHT22;18853;45.426;9.206;2022-12-11T01:45:43;7.90;59.30
32394;DHT22;18853;45.426;9.206;2022-12-11T01:48:20;7.90;59.10
32394;DHT22;18853;45.426;9.206;2022-12-11T01:51:02;7.90;58.90
32394;DHT22;18853;45.426;9.206;2022-12-11T01:53:44;7.90;59.20
32394;DHT22;18853;45.426;9.206;2022-12-11T01:56:10;7.80;59.10
32394;DHT22;18853;45.426;9.206;2022-12-11T01:58:46;7.80;59.30
32394;DHT22;18853;45.426;9.206;2022-12-11T02:01:27;7.80;59.00
32394;DHT22;18853;45.426;9.206;2022-12-11T02:03:54;7.80;59.10
32394;DHT22;18853;45.426;9.206;2022-12-11T02:06:37;7.70;59.20
32394;DHT22;18853;45.426;9.206;2022-12-11T02:09:10;7.80;59.20
32394;DHT22;18853;45.426;9.206;2022-12-11T02:12:01;7.70;59.30
32394;DHT22;18853;45.426;9.206;2022-12-11T02:14:51;7.70;59.20
32394;DHT22;18853;45.426;9.206;2022-12-11T02:17:22;7.70;59.30
32394;DHT22;18853;45.426;9.206;2022-12-11T02:25:30;7.50;59.70
32394;DHT22;18853;45.426;9.206;2022-12-11T02:28:12;7.50;59.60
32394;DHT22;18853;45.426;9.206;2022-12-11T02:30:43;7.50;59.60
32394;DHT22;18853;45.426;9.206;2022-12-11T02:33:12;7.50;59.80
32394;DHT22;18853;45.426;9.206;2022-12-11T02:35:41;7.50;59.80
32394;DHT22;18853;45.426;9.206;2022-12-11T02:38:19;7.60;59.60
32394;DHT22;18853;45.426;9.206;2022-12-11T02:40:48;7.60;59.50
32394;DHT22;18853;45.426;9.206;2022-12-11T02:43:16;7.60;59.50
32394;DHT22;18853;45.426;9.206;2022-12-11T02:45:43;7.60;59.50
32394;DHT22;18853;45.426;9.206;2022-12-11T02:48:11;7.70;59.50
32394;DHT22;18853;45.426;9.206;2022-12-11T02:50:41;7.70;59.50
32394;DHT22;18853;45.426;9.206;2022-12-11T02:53:10;7.70;59.20
32394;DHT22;18853;45.426;9.206;2022-12-11T02:55:37;7.70;59.50
32394;DHT22;18853;45.426;9.206;2022-12-11T02:58:13;7.70;59.50
32394;DHT22;18853;45.426;9.206;2022-12-11T03:00:40;7.70;59.40
32394;DHT22;18853;45.426;9.206;2022-12-11T03:03:06;7.70;59.40
32394;DHT22;18853;45.426;9.206;2022-12-11T03:05:32;7.70;59.40
32394;DHT22;18853;45.426;9.206;2022-12-11T03:07:57;7.70;59.20
32394;DHT22;18853;45.426;9.206;2022-12-11T03:10:23;7.70;59.20
32394;DHT22;18853;45.426;9.206;2022-12-11T03:12:52;7.70;59.20
32394;DHT22;18853;45.426;9.206;2022-12-11T03:15:22;7.70;59.10
32394;DHT22;18853;45.426;9.206;2022-12-11T03:23:19;7.60;59.70
32394;DHT22;18853;45.426;9.206;2022-12-11T03:26:00;7.60;60.00
32394;DHT22;18853;45.426;9.206;2022-12-11T03:29:01;7.50;60.30
32394;DHT22;18853;45.426;9.206;2022-12-11T03:31:38;7.60;60.40
32394;DHT22;18853;45.426;9.206;2022-12-11T03:34:30;7.60;60.70
32394;DHT22;18853;45.426;9.206;2022-12-11T03:36:58;7.60;60.70
32394;DHT22;18853;45.426;9.206;2022-12-11T03:39:48;7.60;60.70
32394;DHT22;18853;45.426;9.206;2022-12-11T03:42:14;7.60;60.90
32394;DHT22;18853;45.426;9.206;2022-12-11T03:44:43;7.60;61.10
32394;DHT22;18853;45.426;9.206;2022-12-11T03:47:11;7.60;61.00
32394;DHT22;18853;45.426;9.206;2022-12-11T03:49:41;7.60;61.20
32394;DHT22;18853;45.426;9.206;2022-12-11T03:52:11;7.60;61.60
32394;DHT22;18853;45.426;9.206;2022-12-11T03:57:13;7.70;61.60
32394;DHT22;18853;45.426;9.206;2022-12-11T03:59:41;7.70;61.60
32394;DHT22;18853;45.426;9.206;2022-12-11T04:02:07;7.70;61.40
32394;DHT22;18853;45.426;9.206;2022-12-11T04:04:35;7.70;61.30
32394;DHT22;18853;45.426;9.206;2022-12-11T04:07:01;7.80;61.30
32394;DHT22;18853;45.426;9.206;2022-12-11T04:09:27;7.80;61.20
32394;DHT22;18853;45.426;9.206;2022-12-11T04:11:53;7.80;61.20
32394;DHT22;18853;45.426;9.206;2022-12-11T04:14:18;7.80;61.40
32394;DHT22;18853;45.426;9.206;2022-12-11T04:17:02;7.80;61.40
32394;DHT22;18853;45.426;9.206;2022-12-11T04:19:28;7.80;61.10
32394;DHT22;18853;45.426;9.206;2022-12-11T04:22:14;7.80;61.20
32394;DHT22;18853;45.426;9.206;2022-12-11T04:25:00;7.80;61.00
32394;DHT22;18853;45.426;9.206;2022-12-11T04:27:26;7.70;61.50
32394;DHT22;18853;45.426;9.206;2022-12-11T04:30:19;7.70;61.50
32394;DHT22;18853;45.426;9.206;2022-12-11T04:32:46;7.70;61.20
32394;DHT22;18853;45.426;9.206;2022-12-11T04:35:12;7.70;61.20
32394;DHT22;18853;45.426;9.206;2022-12-11T04:37:38;7.70;61.20
32394;DHT22;18853;45.426;9.206;2022-12-11T04:40:05;7.80;61.20
32394;DHT22;18853;45.426;9.206;2022-12-11T04:42:31;7.80;61.00
32394;DHT22;18853;45.426;9.206;2022-12-11T04:44:57;7.80;60.90
32394;DHT22;18853;45.426;9.206;2022-12-11T04:47:23;7.80;61.20
32394;DHT22;18853;45.426;9.206;2022-12-11T04:49:48;7.80;61.20
32394;DHT22;18853;45.426;9.206;2022-12-11T04:52:14;7.80;61.30
32394;DHT22;18853;45.426;9.206;2022-12-11T04:54:40;7.90;61.30
32394;DHT22;18853;45.426;9.206;2022-12-11T04:57:05;7.90;61.40
32394;DHT22;18853;45.426;9.206;2022-12-11T04:59:32;7.90;61.50
32394;DHT22;18853;45.426;9.206;2022-12-11T05:01:57;8.00;61.50
32394;DHT22;18853;45.426;9.206;2022-12-11T05:04:24;8.10;61.40
32394;DHT22;18853;45.426;9.206;2022-12-11T05:06:50;8.10;61.30
32394;DHT22;18853;45.426;9.206;2022-12-11T05:09:16;8.00;61.30
32394;DHT22;18853;45.426;9.206;2022-12-11T05:11:42;8.00;61.40
32394;DHT22;18853;45.426;9.206;2022-12-11T05:14:08;8.00;61.60
32394;DHT22;18853;45.426;9.206;2022-12-11T05:16:33;8.00;61.40
32394;DHT22;18853;45.426;9.206;2022-12-11T05:18:59;8.00;61.50
32394;DHT22;18853;45.426;9.206;2022-12-11T05:21:25;8.00;61.30
32394;DHT22;18853;45.426;9.206;2022-12-11T05:23:50;8.10;61.30
32394;DHT22;18853;45.426;9.206;2022-12-11T05:26:18;8.20;61.20
32394;DHT22;18853;45.426;9.206;2022-12-11T05:28:44;8.20;60.70
32394;DHT22;18853;45.426;9.206;2022-12-11T05:31:15;8.30;60.70
32394;DHT22;18853;45.426;9.206;2022-12-11T05:33:42;8.20;60.70
32394;DHT22;18853;45.426;9.206;2022-12-11T05:36:12;8.20;60.80
32394;DHT22;18853;45.426;9.206;2022-12-11T05:38:38;8.20;60.80
32394;DHT22;18853;45.426;9.206;2022-12-11T05:41:05;8.20;60.80
32394;DHT22;18853;45.426;9.206;2022-12-11T05:43:33;8.30;61.00
32394;DHT22;18853;45.426;9.206;2022-12-11T05:46:31;8.30;61.00
32394;DHT22;18853;45.426;9.206;2022-12-11T05:48:59;8.40;60.70
32394;DHT22;18853;45.426;9.206;2022-12-11T05:51:26;8.40;60.60
32394;DHT22;18853;45.426;9.206;2022-12-11T05:53:52;8.30;60.30
32394;DHT22;18853;45.426;9.206;2022-12-11T05:56:21;8.30;60.60
32394;DHT22;18853;45.426;9.206;2022-12-11T05:58:47;8.30;60.60
32394;DHT22;18853;45.426;9.206;2022-12-11T06:01:28;8.30;60.40
32394;DHT22;18853;45.426;9.206;2022-12-11T06:03:55;8.30;60.30
32394;DHT22;18853;45.426;9.206;2022-12-11T06:06:22;8.30;60.00
32394;DHT22;18853;45.426;9.206;2022-12-11T06:08:55;8.30;60.00
32394;DHT22;18853;45.426;9.206;2022-12-11T06:11:22;8.30;60.20
32394;DHT22;18853;45.426;9.206;2022-12-11T06:13:47;8.20;60.20
32394;DHT22;18853;45.426;9.206;2022-12-11T06:16:13;8.20;60.00
32394;DHT22;18853;45.426;9.206;2022-12-11T06:18:41;8.20;60.00
32394;DHT22;18853;45.426;9.206;2022-12-11T06:21:33;8.20;60.00
32394;DHT22;18853;45.426;9.206;2022-12-11T06:24:01;8.30;59.50
32394;DHT22;18853;45.426;9.206;2022-12-11T06:26:28;8.20;59.80
32394;DHT22;18853;45.426;9.206;2022-12-11T06:28:54;8.20;59.80
32394;DHT22;18853;45.426;9.206;2022-12-11T06:31:19;8.20;59.80
32394;DHT22;18853;45.426;9.206;2022-12-11T06:33:46;8.20;59.60
32394;DHT22;18853;45.426;9.206;2022-12-11T06:36:19;8.20;59.50
32394;DHT22;18853;45.426;9.206;2022-12-11T06:38:45;8.20;59.50
32394;DHT22;18853;45.426;9.206;2022-12-11T06:41:11;8.20;59.70
32394;DHT22;18853;45.426;9.206;2022-12-11T06:43:38;8.20;59.70
32394;DHT22;18853;45.426;9.206;2022-12-11T06:46:13;8.20;59.70
32394;DHT22;18853;45.426;9.206;2022-12-11T06:48:40;8.20;59.80
32394;DHT22;18853;45.426;9.206;2022-12-11T06:51:11;8.10;59.70
32394;DHT22;18853;45.426;9.206;2022-12-11T06:53:37;8.10;59.70
32394;DHT22;18853;45.426;9.206;2022-12-11T06:56:05;8.10;59.70
32394;DHT22;18853;45.426;9.206;2022-12-11T06:58:36;8.20;59.60
32394;DHT22;18853;45.426;9.206;2022-12-11T07:01:03;8.20;59.60
32394;DHT22;18853;45.426;9.206;2022-12-11T07:03:29;8.20;59.60
32394;DHT22;18853;45.426;9.206;2022-12-11T07:06:02;8.20;59.70
32394;DHT22;18853;45.426;9.206;2022-12-11T07:08:28;8.20;59.50
32394;DHT22;18853;45.426;9.206;2022-12-11T07:10:54;8.10;59.50
32394;DHT22;18853;45.426;9.206;2022-12-11T07:13:19;8.20;59.50
32394;DHT22;18853;45.426;9.206;2022-12-11T07:15:45;8.10;59.40
32394;DHT22;18853;45.426;9.206;2022-12-11T07:18:11;8.10;59.40
32394;DHT22;18853;45.426;9.206;2022-12-11T07:20:37;8.10;59.70
32394;DHT22;18853;45.426;9.206;2022-12-11T07:23:02;8.00;59.70
32394;DHT22;18853;45.426;9.206;2022-12-11T07:25:28;8.10;59.70
32394;DHT22;18853;45.426;9.206;2022-12-11T07:27:54;8.10;59.70
32394;DHT22;18853;45.426;9.206;2022-12-11T07:30:19;8.10;59.60
32394;DHT22;18853;45.426;9.206;2022-12-11T07:32:45;8.10;59.60
32394;DHT22;18853;45.426;9.206;2022-12-11T07:35:11;8.10;59.60
32394;DHT22;18853;45.426;9.206;2022-12-11T07:37:39;8.10;59.40
32394;DHT22;18853;45.426;9.206;2022-12-11T07:40:05;8.10;60.00
32394;DHT22;18853;45.426;9.206;2022-12-11T07:42:32;8.10;59.40
32394;DHT22;18853;45.426;9.206;2022-12-11T07:44:57;8.10;59.40
32394;DHT22;18853;45.426;9.206;2022-12-11T07:47:23;8.20;59.50
32394;DHT22;18853;45.426;9.206;2022-12-11T07:49:49;8.10;59.50
32394;DHT22;18853;45.426;9.206;2022-12-11T07:52:14;8.20;59.50
32394;DHT22;18853;45.426;9.206;2022-12-11T07:54:40;8.20;59.50
32394;DHT22;18853;45.426;9.206;2022-12-11T07:57:06;8.20;59.50
32394;DHT22;18853;45.426;9.206;2022-12-11T07:59:32;8.20;59.50
32394;DHT22;18853;45.426;9.206;2022-12-11T08:01:57;8.20;59.60
32394;DHT22;18853;45.426;9.206;2022-12-11T08:04:23;8.20;59.70
32394;DHT22;18853;45.426;9.206;2022-12-11T08:06:49;8.30;59.70
32394;DHT22;18853;45.426;9.206;2022-12-11T08:09:14;8.30;59.50
32394;DHT22;18853;45.426;9.206;2022-12-11T08:11:40;8.40;59.60
32394;DHT22;18853;45.426;9.206;2022-12-11T08:14:06;8.50;59.50
32394;DHT22;18853;45.426;9.206;2022-12-11T08:16:33;8.50;59.40
32394;DHT22;18853;45.426;9.206;2022-12-11T08:18:59;8.60;60.80
32394;DHT22;18853;45.426;9.206;2022-12-11T08:21:26;8.70;59.50
32394;DHT22;18853;45.426;9.206;2022-12-11T08:23:53;8.70;59.30
32394;DHT22;18853;45.426;9.206;2022-12-11T08:26:21;8.70;59.20
32394;DHT22;18853;45.426;9.206;2022-12-11T08:28:57;8.80;59.40
32394;DHT22;18853;45.426;9.206;2022-12-11T08:31:24;8.70;59.20
32394;DHT22;18853;45.426;9.206;2022-12-11T08:33:50;8.70;59.60
32394;DHT22;18853;45.426;9.206;2022-12-11T08:36:18;8.80;59.20
32394;DHT22;18853;45.426;9.206;2022-12-11T08:38:45;8.80;59.20
32394;DHT22;18853;45.426;9.206;2022-12-11T08:41:17;8.90;59.30
32394;DHT22;18853;45.426;9.206;2022-12-11T08:43:43;9.00;59.30
32394;DHT22;18853;45.426;9.206;2022-12-11T08:46:10;8.90;59.40
32394;DHT22;18853;45.426;9.206;2022-12-11T08:48:37;9.00;59.40
32394;DHT22;18853;45.426;9.206;2022-12-11T08:51:06;9.00;59.40
32394;DHT22;18853;45.426;9.206;2022-12-11T08:53:33;9.10;59.40
32394;DHT22;18853;45.426;9.206;2022-12-11T08:56:02;9.10;59.30
32394;DHT22;18853;45.426;9.206;2022-12-11T08:58:28;9.20;59.00
32394;DHT22;18853;45.426;9.206;2022-12-11T09:00:56;9.10;59.30
32394;DHT22;18853;45.426;9.206;2022-12-11T09:03:22;9.00;59.40
32394;DHT22;18853;45.426;9.206;2022-12-11T09:05:48;8.90;60.10
32394;DHT22;18853;45.426;9.206;2022-12-11T09:08:13;8.90;60.40
32394;DHT22;18853;45.426;9.206;2022-12-11T09:10:39;8.90;60.40
32394;DHT22;18853;45.426;9.206;2022-12-11T09:13:05;9.00;60.30
32394;DHT22;18853;45.426;9.206;2022-12-11T09:15:30;9.00;61.00
32394;DHT22;18853;45.426;9.206;2022-12-11T09:17:56;9.10;60.10
32394;DHT22;18853;45.426;9.206;2022-12-11T09:20:22;9.20;60.00
32394;DHT22;18853;45.426;9.206;2022-12-11T09:22:47;9.10;59.90
32394;DHT22;18853;45.426;9.206;2022-12-11T09:25:13;9.20;60.10
32394;DHT22;18853;45.426;9.206;2022-12-11T09:27:39;9.20;60.10
32394;DHT22;18853;45.426;9.206;2022-12-11T09:30:06;9.20;60.10
32394;DHT22;18853;45.426;9.206;2022-12-11T09:32:32;9.20;60.30
32394;DHT22;18853;45.426;9.206;2022-12-11T09:34:58;9.20;60.30
32394;DHT22;18853;45.426;9.206;2022-12-11T09:37:24;9.20;60.40
32394;DHT22;18853;45.426;9.206;2022-12-11T09:39:49;9.30;60.50
32394;DHT22;18853;45.426;9.206;2022-12-11T09:42:23;9.20;60.30
32394;DHT22;18853;45.426;9.206;2022-12-11T09:44:56;9.00;60.50
32394;DHT22;18853;45.426;9.206;2022-12-11T09:53:04;8.90;60.90
32394;DHT22;18853;45.426;9.206;2022-12-11T10:07:10;9.10;60.60
32394;DHT22;18853;45.426;9.206;2022-12-11T10:18:13;9.00;60.80
32394;DHT22;18853;45.426;9.206;2022-12-11T10:20:41;9.00;60.50
32394;DHT22;18853;45.426;9.206;2022-12-11T10:23:16;8.90;60.20
32394;DHT22;18853;45.426;9.206;2022-12-11T10:26:03;9.00;60.50
32394;DHT22;18853;45.426;9.206;2022-12-11T10:28:30;9.00;60.80
32394;DHT22;18853;45.426;9.206;2022-12-11T10:36:19;9.00;61.10
32394;DHT22;18853;45.426;9.206;2022-12-11T10:38:49;9.00;61.00
32394;DHT22;18853;45.426;9.206;2022-12-11T10:41:35;9.00;61.00
32394;DHT22;18853;45.426;9.206;2022-12-11T10:44:16;9.10;60.90
32394;DHT22;18853;45.426;9.206;2022-12-11T10:46:43;9.10;61.10
32394;DHT22;18853;45.426;9.206;2022-12-11T10:49:25;9.10;61.40
32394;DHT22;18853;45.426;9.206;2022-12-11T10:51:52;9.10;61.50
32394;DHT22;18853;45.426;9.206;2022-12-11T10:54:39;9.10;60.40
32394;DHT22;18853;45.426;9.206;2022-12-11T10:57:07;9.10;59.90
32394;DHT22;18853;45.426;9.206;2022-12-11T11:02:13;9.10;59.70
32394;DHT22;18853;45.426;9.206;2022-12-11T11:04:42;9.20;59.80
32394;DHT22;18853;45.426;9.206;2022-12-11T11:07:26;9.20;59.90
32394;DHT22;18853;45.426;9.206;2022-12-11T11:10:14;9.40;59.70
32394;DHT22;18853;45.426;9.206;2022-12-11T11:12:48;9.50;59.60
32394;DHT22;18853;45.426;9.206;2022-12-11T11:15:26;9.50;59.90
32394;DHT22;18853;45.426;9.206;2022-12-11T11:17:54;9.50;60.20
32394;DHT22;18853;45.426;9.206;2022-12-11T11:20:26;9.50;59.80
32394;DHT22;18853;45.426;9.206;2022-12-11T11:22:56;9.50;59.40
32394;DHT22;18853;45.426;9.206;2022-12-11T11:25:27;9.50;59.70
32394;DHT22;18853;45.426;9.206;2022-12-11T11:27:54;9.50;59.70
32394;DHT22;18853;45.426;9.206;2022-12-11T11:30:38;9.60;59.80
32394;DHT22;18853;45.426;9.206;2022-12-11T11:33:18;9.70;59.50
32394;DHT22;18853;45.426;9.206;2022-12-11T11:38:21;9.80;58.10
32394;DHT22;18853;45.426;9.206;2022-12-11T11:41:17;9.80;58.30
32394;DHT22;18853;45.426;9.206;2022-12-11T11:46:13;10.10;57.50
32394;DHT22;18853;45.426;9.206;2022-12-11T11:57:02;10.60;54.60
32394;DHT22;18853;45.426;9.206;2022-12-11T11:59:33;10.70;54.70
32394;DHT22;18853;45.426;9.206;2022-12-11T12:02:00;10.80;54.10
32394;DHT22;18853;45.426;9.206;2022-12-11T12:04:33;11.00;53.80
32394;DHT22;18853;45.426;9.206;2022-12-11T12:07:08;11.10;53.00
32394;DHT22;18853;45.426;9.206;2022-12-11T12:17:57;11.70;51.80
32394;DHT22;18853;45.426;9.206;2022-12-11T12:20:47;11.80;50.90
32394;DHT22;18853;45.426;9.206;2022-12-11T12:26:32;12.10;49.50
32394;DHT22;18853;45.426;9.206;2022-12-11T12:32:20;12.10;50.10
32394;DHT22;18853;45.426;9.206;2022-12-11T12:37:45;12.40;50.70
32394;DHT22;18853;45.426;9.206;2022-12-11T12:46:09;12.90;49.00
32394;DHT22;18853;45.426;9.206;2022-12-11T12:48:38;13.10;48.70
32394;DHT22;18853;45.426;9.206;2022-12-11T12:51:05;13.20;49.10
32394;DHT22;18853;45.426;9.206;2022-12-11T12:53:33;13.30;48.40
32394;DHT22;18853;45.426;9.206;2022-12-11T12:56:01;13.30;48.10
32394;DHT22;18853;45.426;9.206;2022-12-11T13:04:01;13.60;47.90
32394;DHT22;18853;45.426;9.206;2022-12-11T13:09:22;14.00;45.90
32394;DHT22;18853;45.426;9.206;2022-12-11T13:11:51;14.00;46.00
32394;DHT22;18853;45.426;9.206;2022-12-11T13:16:50;14.20;46.40
32394;DHT22;18853;45.426;9.206;2022-12-11T13:32:41;15.00;44.30
32394;DHT22;18853;45.426;9.206;2022-12-11T13:35:14;15.10;44.50
32394;DHT22;18853;45.426;9.206;2022-12-11T13:37:44;15.30;43.80
32394;DHT22;18853;45.426;9.206;2022-12-11T13:42:51;15.30;43.00
32394;DHT22;18853;45.426;9.206;2022-12-11T13:45:22;15.40;42.70
32394;DHT22;18853;45.426;9.206;2022-12-11T13:47:50;15.40;43.20
32394;DHT22;18853;45.426;9.206;2022-12-11T13:50:27;15.40;43.30
32394;DHT22;18853;45.426;9.206;2022-12-11T13:52:54;15.50;42.90
32394;DHT22;18853;45.426;9.206;2022-12-11T13:55:27;15.70;43.40
32394;DHT22;18853;45.426;9.206;2022-12-11T13:57:53;15.80;42.80
32394;DHT22;18853;45.426;9.206;2022-12-11T14:00:24;15.90;42.90
32394;DHT22;18853;45.426;9.206;2022-12-11T14:02:52;15.90;42.70
32394;DHT22;18853;45.426;9.206;2022-12-11T14:05:19;15.90;42.60
32394;DHT22;18853;45.426;9.206;2022-12-11T14:07:54;15.90;42.50
32394;DHT22;18853;45.426;9.206;2022-12-11T14:10:25;15.90;42.00
32394;DHT22;18853;45.426;9.206;2022-12-11T14:15:24;16.00;42.50
32394;DHT22;18853;45.426;9.206;2022-12-11T14:17:51;16.00;42.50
32394;DHT22;18853;45.426;9.206;2022-12-11T14:20:24;16.10;42.70
32394;DHT22;18853;45.426;9.206;2022-12-11T14:23:06;16.30;42.60
32394;DHT22;18853;45.426;9.206;2022-12-11T14:25:33;16.20;42.40
32394;DHT22;18853;45.426;9.206;2022-12-11T14:27:59;16.10;42.70
32394;DHT22;18853;45.426;9.206;2022-12-11T14:30:28;16.10;42.30
32394;DHT22;18853;45.426;9.206;2022-12-11T14:33:00;16.10;42.00
32394;DHT22;18853;45.426;9.206;2022-12-11T14:35:29;16.20;41.70
32394;DHT22;18853;45.426;9.206;2022-12-11T14:37:58;16.20;40.80
32394;DHT22;18853;45.426;9.206;2022-12-11T14:40:29;16.10;40.20
32394;DHT22;18853;45.426;9.206;2022-12-11T14:43:03;16.00;39.90
32394;DHT22;18853;45.426;9.206;2022-12-11T14:45:41;15.90;39.90
32394;DHT22;18853;45.426;9.206;2022-12-11T14:48:15;15.60;39.90
32394;DHT22;18853;45.426;9.206;2022-12-11T14:50:48;15.40;40.50
32394;DHT22;18853;45.426;9.206;2022-12-11T14:55:50;14.80;41.30
32394;DHT22;18853;45.426;9.206;2022-12-11T14:58:23;14.50;41.80
32394;DHT22;18853;45.426;9.206;2022-12-11T15:03:23;14.00;43.80
32394;DHT22;18853;45.426;9.206;2022-12-11T15:05:54;13.70;44.10
32394;DHT22;18853;45.426;9.206;2022-12-11T15:11:10;13.40;45.90
32394;DHT22;18853;45.426;9.206;2022-12-11T15:13:50;13.30;47.10
32394;DHT22;18853;45.426;9.206;2022-12-11T15:16:16;13.10;47.90
32394;DHT22;18853;45.426;9.206;2022-12-11T15:18:48;13.00;48.80
32394;DHT22;18853;45.426;9.206;2022-12-11T15:21:15;12.90;49.40
32394;DHT22;18853;45.426;9.206;2022-12-11T15:23:52;12.80;49.70
32394;DHT22;18853;45.426;9.206;2022-12-11T15:29:03;12.60;50.50
32394;DHT22;18853;45.426;9.206;2022-12-11T15:31:32;12.50;50.90
32394;DHT22;18853;45.426;9.206;2022-12-11T15:34:01;12.40;51.20
32394;DHT22;18853;45.426;9.206;2022-12-11T15:36:33;12.40;51.40
32394;DHT22;18853;45.426;9.206;2022-12-11T15:39:03;12.30;51.70
32394;DHT22;18853;45.426;9.206;2022-12-11T15:41:33;12.30;51.90
32394;DHT22;18853;45.426;9.206;2022-12-11T15:44:00;12.20;52.00
32394;DHT22;18853;45.426;9.206;2022-12-11T15:46:27;12.10;52.20
32394;DHT22;18853;45.426;9.206;2022-12-11T15:48:55;12.10;52.50
32394;DHT22;18853;45.426;9.206;2022-12-11T15:51:20;12.10;52.70
32394;DHT22;18853;45.426;9.206;2022-12-11T15:53:47;12.00;52.70
32394;DHT22;18853;45.426;9.206;2022-12-11T15:56:16;12.00;52.80
32394;DHT22;18853;45.426;9.206;2022-12-11T15:58:44;12.00;53.10
32394;DHT22;18853;45.426;9.206;2022-12-11T16:01:10;11.90;53.30
32394;DHT22;18853;45.426;9.206;2022-12-11T16:03:36;11.90;53.60
32394;DHT22;18853;45.426;9.206;2022-12-11T16:06:02;11.80;53.70
32394;DHT22;18853;45.426;9.206;2022-12-11T16:08:28;11.80;53.80
32394;DHT22;18853;45.426;9.206;2022-12-11T16:10:54;11.80;53.80
32394;DHT22;18853;45.426;9.206;2022-12-11T16:13:20;11.70;53.80
32394;DHT22;18853;45.426;9.206;2022-12-11T16:15:47;11.70;54.10
32394;DHT22;18853;45.426;9.206;2022-12-11T16:18:20;11.60;54.30
32394;DHT22;18853;45.426;9.206;2022-12-11T16:20:47;11.60;54.30
32394;DHT22;18853;45.426;9.206;2022-12-11T16:23:13;11.60;54.40
32394;DHT22;18853;45.426;9.206;2022-12-11T16:25:41;11.50;54.50
32394;DHT22;18853;45.426;9.206;2022-12-11T16:28:09;11.50;54.60
32394;DHT22;18853;45.426;9.206;2022-12-11T16:30:37;11.50;54.60
32394;DHT22;18853;45.426;9.206;2022-12-11T16:33:04;11.40;54.70
32394;DHT22;18853;45.426;9.206;2022-12-11T16:35:30;11.40;54.90
32394;DHT22;18853;45.426;9.206;2022-12-11T16:37:56;11.40;55.00
32394;DHT22;18853;45.426;9.206;2022-12-11T16:40:22;11.30;55.00
32394;DHT22;18853;45.426;9.206;2022-12-11T16:42:48;11.30;55.20
32394;DHT22;18853;45.426;9.206;2022-12-11T16:45:18;11.20;55.20
32394;DHT22;18853;45.426;9.206;2022-12-11T16:47:45;11.20;55.80
32394;DHT22;18853;45.426;9.206;2022-12-11T16:50:11;11.20;55.30
32394;DHT22;18853;45.426;9.206;2022-12-11T16:52:38;11.20;55.30
32394;DHT22;18853;45.426;9.206;2022-12-11T16:55:04;11.20;55.40
32394;DHT22;18853;45.426;9.206;2022-12-11T16:57:30;11.20;55.40
32394;DHT22;18853;45.426;9.206;2022-12-11T16:59:56;11.10;55.50
32394;DHT22;18853;45.426;9.206;2022-12-11T17:02:22;11.10;55.50
32394;DHT22;18853;45.426;9.206;2022-12-11T17:04:47;11.10;55.50
32394;DHT22;18853;45.426;9.206;2022-12-11T17:07:14;11.00;55.60
32394;DHT22;18853;45.426;9.206;2022-12-11T17:09:40;11.10;55.70
32394;DHT22;18853;45.426;9.206;2022-12-11T17:12:06;11.00;55.70
32394;DHT22;18853;45.426;9.206;2022-12-11T17:14:32;11.00;55.80
32394;DHT22;18853;45.426;9.206;2022-12-11T17:16:58;11.00;55.80
32394;DHT22;18853;45.426;9.206;2022-12-11T17:19:23;11.00;55.80
32394;DHT22;18853;45.426;9.206;2022-12-11T17:21:49;11.00;55.90
32394;DHT22;18853;45.426;9.206;2022-12-11T17:24:16;11.00;56.00
32394;DHT22;18853;45.426;9.206;2022-12-11T17:26:42;10.90;56.10
32394;DHT22;18853;45.426;9.206;2022-12-11T17:29:09;10.90;56.20
32394;DHT22;18853;45.426;9.206;2022-12-11T17:31:36;10.90;56.30
32394;DHT22;18853;45.426;9.206;2022-12-11T17:34:02;10.90;56.30
32394;DHT22;18853;45.426;9.206;2022-12-11T17:36:27;10.90;56.30
32394;DHT22;18853;45.426;9.206;2022-12-11T17:38:53;10.80;56.30
32394;DHT22;18853;45.426;9.206;2022-12-11T17:41:19;10.80;56.20
32394;DHT22;18853;45.426;9.206;2022-12-11T17:43:50;10.90;56.20
32394;DHT22;18853;45.426;9.206;2022-12-11T17:46:16;10.80;56.30
32394;DHT22;18853;45.426;9.206;2022-12-11T17:48:42;10.70;56.50
32394;DHT22;18853;45.426;9.206;2022-12-11T17:51:10;10.70;56.60
32394;DHT22;18853;45.426;9.206;2022-12-11T17:53:36;10.70;56.60
32394;DHT22;18853;45.426;9.206;2022-12-11T17:56:04;10.60;56.60
32394;DHT22;18853;45.426;9.206;2022-12-11T17:58:31;10.60;56.60